TimeCDT,TemperatureF,Dew PointF,Humidity,Sea Level PressureIn,VisibilityMPH,Wind Direction,Wind SpeedMPH,Gust SpeedMPH,PrecipitationIn,Events,Conditions,WindDirDegrees,DateUTC
12:01 AM,46.4,44.6,93,29.66,3.0,SSE,18.4,28.8,0.00,Rain,Light Rain,150,2013-03-10 06:01:00
12:41 AM,46.4,46.4,100,29.68,2.5,South,13.8,-,0.02,Rain,Light Rain,180,2013-03-10 06:41:00
12:53 AM,46.9,45.0,93,29.68,2.0,SSE,17.3,-,0.02,Rain,Light Rain,160,2013-03-10 06:53:00
1:09 AM,46.4,46.4,100,29.65,3.0,SSE,18.4,-,0.01,Rain,Light Rain,160,2013-03-10 07:09:00
1:19 AM,48.2,46.4,93,29.65,4.0,SSE,17.3,25.3,0.01,Rain,Light Rain,150,2013-03-10 07:19:00
1:53 AM,48.0,46.9,96,29.66,6.0,South,16.1,-,0.02,,Overcast,180,2013-03-10 07:53:00
3:15 AM,46.4,44.6,93,29.62,3.0,SE,10.4,-,0.00,Rain,Light Rain,140,2013-03-10 08:15:00
3:53 AM,46.0,44.1,93,29.61,1.5,ESE,4.6,-,0.00,,Mostly Cloudy,110,2013-03-10 08:53:00
4:00 AM,46.4,44.6,93,29.60,1.2,East,4.6,-,N/A,,Mostly Cloudy,90,2013-03-10 09:00:00
4:18 AM,44.6,44.6,100,29.62,0.8,South,9.2,-,N/A,,Mostly Cloudy,170,2013-03-10 09:18:00
4:25 AM,44.6,44.6,100,29.62,2.0,South,9.2,-,N/A,,Overcast,170,2013-03-10 09:25:00
4:44 AM,46.4,46.4,100,29.62,4.0,South,15.0,-,N/A,,Overcast,170,2013-03-10 09:44:00
4:53 AM,46.9,46.0,97,29.64,6.0,South,17.3,24.2,N/A,,Overcast,180,2013-03-10 09:53:00
5:04 AM,46.4,46.4,100,29.63,5.0,South,15.0,-,N/A,,Overcast,170,2013-03-10 10:04:00
5:23 AM,46.4,46.4,100,29.63,4.0,South,15.0,-,N/A,,Overcast,180,2013-03-10 10:23:00
5:53 AM,45.0,45.0,100,29.65,1.8,South,11.5,-,N/A,,Overcast,180,2013-03-10 10:53:00
6:12 AM,44.6,44.6,100,29.62,0.8,South,9.2,-,N/A,,Mist,180,2013-03-10 11:12:00
6:46 AM,44.6,44.6,100,29.64,0.2,SSW,4.6,-,N/A,Fog,Fog,210,2013-03-10 11:46:00
6:53 AM,44.1,43.0,96,29.66,0.2,SW,3.5,-,N/A,Fog,Fog,220,2013-03-10 11:53:00
7:53 AM,43.0,42.1,97,29.67,0.2,East,3.5,-,N/A,Fog,Fog,90,2013-03-10 12:53:00
8:53 AM,41.0,41.0,100,29.69,0.2,Calm,Calm,-,0.01,Fog,Fog,0,2013-03-10 13:53:00
9:53 AM,39.0,39.0,100,29.71,0.2,West,6.9,-,0.04,Fog-Rain,Light Rain,280,2013-03-10 14:53:00
10:10 AM,37.4,37.4,100,29.68,0.8,NW,5.8,-,0.00,Rain,Light Rain,310,2013-03-10 15:10:00
10:40 AM,37.4,37.4,100,29.67,1.5,NW,9.2,-,0.00,,Overcast,320,2013-03-10 15:40:00
10:53 AM,37.9,37.9,100,29.70,1.5,WNW,8.1,-,0.00,,Overcast,300,2013-03-10 15:53:00
11:53 AM,37.9,37.9,100,29.68,1.5,North,10.4,-,0.03,Rain,Light Rain,350,2013-03-10 16:53:00
12:53 PM,37.9,37.0,97,29.68,0.8,North,9.2,-,0.00,Rain,Light Rain,350,2013-03-10 17:53:00
1:43 PM,37.4,37.4,100,29.64,1.0,North,10.4,-,0.03,Rain,Light Rain,10,2013-03-10 18:43:00
1:53 PM,37.9,37.0,97,29.65,1.2,NNE,8.1,-,0.04,Rain,Light Rain,20,2013-03-10 18:53:00
2:24 PM,37.4,37.4,100,29.61,3.0,NE,10.4,-,0.01,Rain,Light Rain,40,2013-03-10 19:24:00
2:44 PM,37.4,37.4,100,29.62,2.5,NNE,8.1,-,0.02,Rain,Light Rain,20,2013-03-10 19:44:00
2:53 PM,37.9,37.9,100,29.64,4.0,North,3.5,-,0.02,Rain,Light Rain,360,2013-03-10 19:53:00
3:13 PM,37.4,37.4,100,29.63,2.5,WNW,6.9,-,0.01,Rain,Light Rain,290,2013-03-10 20:13:00
3:21 PM,37.4,37.4,100,29.62,4.0,NW,5.8,-,0.01,Rain,Light Rain,310,2013-03-10 20:21:00
3:39 PM,37.4,37.4,100,29.63,1.8,West,3.5,-,0.05,Rain,Rain,280,2013-03-10 20:39:00
3:51 PM,37.4,37.4,100,29.63,2.0,WNW,6.9,-,0.07,Rain,Rain,290,2013-03-10 20:51:00
3:53 PM,37.9,37.9,100,29.64,2.0,WNW,6.9,-,0.08,Rain,Rain,290,2013-03-10 20:53:00
4:12 PM,37.4,37.4,100,29.63,2.5,NNW,5.8,-,0.04,Rain,Rain,330,2013-03-10 21:12:00
4:17 PM,37.4,37.4,100,29.63,3.0,Calm,Calm,-,0.05,Rain,Light Rain,0,2013-03-10 21:17:00
4:36 PM,37.4,37.4,100,29.62,2.5,NNW,4.6,-,0.09,Rain,Rain,330,2013-03-10 21:36:00
4:43 PM,37.4,37.4,100,29.62,3.0,NW,3.5,-,0.10,Rain,Light Rain,320,2013-03-10 21:43:00
4:53 PM,37.9,37.9,100,29.63,5.0,NNW,4.6,-,0.10,Rain,Light Rain,340,2013-03-10 21:53:00
5:20 PM,37.4,37.4,100,29.61,4.0,North,5.8,-,0.03,Rain,Light Rain,360,2013-03-10 22:20:00
5:46 PM,37.4,37.4,100,29.62,4.0,NNW,4.6,-,0.04,Rain,Light Rain,330,2013-03-10 22:46:00
5:53 PM,37.9,37.9,100,29.63,4.0,WNW,5.8,-,0.04,Rain,Light Rain,300,2013-03-10 22:53:00
6:53 PM,37.0,36.0,96,29.65,6.0,WNW,9.2,-,0.01,Rain,Light Rain,290,2013-03-10 23:53:00
7:53 PM,37.0,36.0,96,29.66,10.0,WNW,11.5,-,0.00,,Overcast,300,2013-03-11 00:53:00
8:53 PM,36.0,35.1,97,29.67,7.0,NW,10.4,-,0.00,Rain,Light Rain,310,2013-03-11 01:53:00
9:53 PM,35.1,34.0,96,29.68,10.0,NW,8.1,-,0.00,,Overcast,310,2013-03-11 02:53:00
10:53 PM,34.0,33.1,96,29.69,8.0,WNW,9.2,-,N/A,,Overcast,300,2013-03-11 03:53:00
11:53 PM,34.0,33.1,96,29.69,5.0,NW,8.1,-,N/A,,Overcast,310,2013-03-11 04:53:00
12:28 AM,33.8,33.8,100,29.67,2.5,WNW,9.2,-,N/A,,Overcast,300,2013-03-11 05:28:00
12:53 AM,34.0,33.1,96,29.69,2.5,NW,9.2,-,N/A,,Overcast,310,2013-03-11 05:53:00